Time;durP1;ratioP1;P1;durP2;ratioP2;P2;SDS_P1;SDS_P2;PMS_P1;PMS_P2;Temp;Humidity;BMP_temperature;BMP_pressure;BME280_temperature;BME280_humidity;BME280_pressure;Samples;Min_cycle;Max_cycle;Signal;HPM_P1;HPM_P2
2021/07/01 00:01:09;;;;;;;12.02;8.48;;;23.70;66.20;;;;;;5055612;28;20035;-43
2021/07/01 00:03:34;;;;;;;11.00;9.02;;;23.70;66.20;;;;;;5054806;28;20108;-43
2021/07/01 00:06:00;;;;;;;14.38;9.82;;;23.70;66.20;;;;;;5055997;28;20025;-43
2021/07/01 00:08:25;;;;;;;17.08;9.98;;;23.70;66.20;;;;;;5055363;28;20074;-43
2021/07/01 00:10:52;;;;;;;12.35;8.40;;;23.70;66.40;;;;;;5055274;28;20021;-43
2021/07/01 00:13:17;;;;;;;11.32;8.05;;;23.70;66.50;;;;;;5054478;28;20044;-47
2021/07/01 00:15:43;;;;;;;12.35;8.75;;;23.70;66.60;;;;;;5055845;28;20025;-45
2021/07/01 00:18:09;;;;;;;13.48;9.25;;;23.70;66.70;;;;;;5055130;28;20120;-46
2021/07/01 00:20:35;;;;;;;11.43;8.95;;;23.70;66.80;;;;;;5055932;28;20033;-47
2021/07/01 00:23:01;;;;;;;12.85;9.38;;;23.70;66.90;;;;;;5055239;28;20071;-48
2021/07/01 00:25:27;;;;;;;15.32;8.75;;;23.70;67.30;;;;;;5055586;28;20428;-45
2021/07/01 00:27:53;;;;;;;10.43;8.02;;;23.80;67.40;;;;;;5055306;28;20033;-44
2021/07/01 00:30:22;;;;;;;12.82;9.10;;;23.80;67.40;;;;;;5055455;28;20025;-45
2021/07/01 00:32:49;;;;;;;11.73;8.73;;;23.70;67.40;;;;;;5055042;28;20081;-42
2021/07/01 00:35:15;;;;;;;12.27;9.05;;;23.70;67.30;;;;;;5055467;28;20033;-46
2021/07/01 00:37:41;;;;;;;13.60;8.95;;;23.70;67.90;;;;;;5055025;28;20045;-47
2021/07/01 00:40:09;;;;;;;10.10;8.18;;;23.70;67.40;;;;;;5054958;28;20332;-47
2021/07/01 00:42:35;;;;;;;13.05;8.70;;;23.70;67.70;;;;;;5054791;28;20036;-43
2021/07/01 00:45:02;;;;;;;9.77;8.30;;;23.70;68.40;;;;;;5055397;28;20037;-46
2021/07/01 00:47:28;;;;;;;13.50;9.10;;;23.70;68.00;;;;;;5054818;28;20036;-46
2021/07/01 00:49:53;;;;;;;13.48;9.88;;;23.60;67.90;;;;;;5054956;28;20033;-44
2021/07/01 00:52:20;;;;;;;14.07;9.07;;;23.60;68.10;;;;;;5054826;28;20033;-45
2021/07/01 00:54:46;;;;;;;13.75;9.55;;;23.60;68.10;;;;;;5055221;28;20043;-44
2021/07/01 00:57:11;;;;;;;11.77;10.07;;;23.60;68.10;;;;;;5054825;28;20116;-46
2021/07/01 00:59:38;;;;;;;14.25;10.20;;;23.50;68.50;;;;;;5054859;28;20114;-47
2021/07/01 01:02:05;;;;;;;13.77;10.15;;;23.50;69.10;;;;;;5054868;28;20025;-46
2021/07/01 01:04:32;;;;;;;13.98;9.40;;;23.50;69.80;;;;;;5054803;28;20420;-47
2021/07/01 01:06:57;;;;;;;16.58;10.57;;;23.40;69.60;;;;;;5054887;28;20029;-45
2021/07/01 01:09:23;;;;;;;16.40;10.70;;;23.40;70.00;;;;;;5053644;28;20055;-44
2021/07/01 01:11:49;;;;;;;16.27;9.00;;;23.40;70.30;;;;;;5054450;28;20409;-43
2021/07/01 01:14:14;;;;;;;17.08;10.32;;;23.40;70.30;;;;;;5054627;28;20037;-45
2021/07/01 01:16:40;;;;;;;15.65;11.00;;;23.40;70.80;;;;;;5055127;28;20108;-45
2021/07/01 01:19:06;;;;;;;13.40;9.88;;;23.40;71.00;;;;;;5054447;28;20033;-44
2021/07/01 01:21:32;;;;;;;20.00;10.60;;;23.40;71.10;;;;;;5055010;28;20057;-45
2021/07/01 01:24:00;;;;;;;19.63;10.82;;;23.40;71.30;;;;;;5056244;28;20307;-47
2021/07/01 01:26:26;;;;;;;16.08;11.30;;;23.40;72.00;;;;;;5058688;28;20144;-46
2021/07/01 01:28:53;;;;;;;18.17;11.35;;;23.50;72.60;;;;;;5057875;28;20321;-46
2021/07/01 01:31:20;;;;;;;20.90;10.63;;;23.50;72.70;;;;;;5058271;28;20405;-43
2021/07/01 01:33:49;;;;;;;44.15;18.42;;;23.50;72.70;;;;;;5057556;28;20044;-45
2021/07/01 01:36:15;;;;;;;23.10;14.90;;;23.50;76.30;;;;;;5058686;28;20087;-45
2021/07/01 01:38:40;;;;;;;22.00;13.82;;;23.40;76.70;;;;;;5057890;28;20055;-47
2021/07/01 01:41:06;;;;;;;24.98;16.30;;;23.30;77.60;;;;;;5058183;28;20329;-45
2021/07/01 01:43:31;;;;;;;20.20;16.20;;;23.10;78.30;;;;;;5057837;28;20031;-47
2021/07/01 01:45:57;;;;;;;24.98;18.35;;;22.90;79.00;;;;;;5058118;28;20312;-49
2021/07/01 01:48:23;;;;;;;23.58;17.52;;;22.70;80.30;;;;;;5057643;28;20493;-47
2021/07/01 01:50:49;;;;;;;23.83;16.55;;;22.60;80.80;;;;;;5058435;28;20025;-46
2021/07/01 01:53:15;;;;;;;17.88;14.30;;;22.50;81.90;;;;;;5057832;28;20044;-46
2021/07/01 01:55:41;;;;;;;20.25;14.82;;;22.30;83.00;;;;;;5058253;28;20079;-51
2021/07/01 01:58:07;;;;;;;16.67;12.93;;;22.20;84.00;;;;;;5057889;28;20036;-46
2021/07/01 02:00:34;;;;;;;17.77;14.07;;;22.20;84.70;;;;;;5057670;28;20021;-49
2021/07/01 02:03:00;;;;;;;15.77;12.30;;;22.10;85.70;;;;;;5057506;28;20037;-45
2021/07/01 02:05:26;;;;;;;14.85;11.27;;;22.00;86.10;;;;;;5057950;28;20309;-50
2021/07/01 02:07:52;;;;;;;15.38;12.27;;;22.00;86.40;;;;;;5057714;28;20025;-48
2021/07/01 02:10:21;;;;;;;13.00;10.43;;;22.00;87.20;;;;;;5057698;28;20029;-47
2021/07/01 02:12:47;;;;;;;10.93;9.82;;;22.00;87.30;;;;;;5057593;28;20310;-45
2021/07/01 02:15:16;;;;;;;12.13;10.07;;;22.00;87.60;;;;;;5057839;28;20032;-46
2021/07/01 02:17:42;;;;;;;12.15;10.40;;;22.00;87.40;;;;;;5057508;28;20037;-47
2021/07/01 02:20:13;;;;;;;11.35;10.07;;;22.00;87.70;;;;;;5057493;28;20156;-47
2021/07/01 02:22:39;;;;;;;14.18;10.00;;;22.00;87.60;;;;;;5057040;28;20033;-48
2021/07/01 02:25:07;;;;;;;12.82;11.02;;;22.00;88.10;;;;;;5057655;28;20025;-47
2021/07/01 02:27:33;;;;;;;12.85;10.55;;;22.00;88.70;;;;;;5072775;28;20033;-46
2021/07/01 02:30:00;;;;;;;15.45;11.45;;;22.00;88.80;;;;;;5056872;28;20119;-45
2021/07/01 02:32:25;;;;;;;11.85;9.50;;;22.00;88.70;;;;;;5057043;28;20036;-45
2021/07/01 02:34:51;;;;;;;13.18;10.43;;;22.00;89.30;;;;;;5056449;28;20029;-45
2021/07/01 02:37:19;;;;;;;14.05;11.00;;;22.10;89.30;;;;;;5056903;28;20428;-45
2021/07/01 02:39:45;;;;;;;13.48;11.35;;;22.10;89.40;;;;;;5057058;28;20063;-45
2021/07/01 02:42:10;;;;;;;14.10;10.05;;;22.10;89.50;;;;;;5057334;28;20132;-45
2021/07/01 02:44:36;;;;;;;14.18;10.02;;;22.10;89.00;;;;;;5056788;28;20377;-48
2021/07/01 02:47:02;;;;;;;15.95;10.93;;;22.20;89.60;;;;;;5057011;28;20132;-46
2021/07/01 02:49:28;;;;;;;11.43;8.60;;;22.20;89.70;;;;;;5056645;28;20333;-46
2021/07/01 02:51:53;;;;;;;13.20;10.30;;;22.20;89.80;;;;;;5056750;28;20082;-46
2021/07/01 02:54:20;;;;;;;14.65;10.48;;;22.30;90.00;;;;;;5056765;28;20394;-45
2021/07/01 02:56:47;;;;;;;15.27;11.50;;;22.30;90.10;;;;;;5057051;28;20037;-48
2021/07/01 02:59:15;;;;;;;13.40;10.50;;;22.30;90.20;;;;;;5056544;28;20064;-49
2021/07/01 03:01:45;;;;;;;14.50;10.50;;;22.40;90.30;;;;;;5056530;28;20033;-46
2021/07/01 03:04:11;;;;;;;10.23;8.32;;;22.40;90.30;;;;;;5056353;28;20021;-48
2021/07/01 03:06:37;;;;;;;11.57;9.02;;;22.50;90.20;;;;;;5056923;28;20036;-48
2021/07/01 03:09:04;;;;;;;12.20;10.05;;;22.50;90.30;;;;;;5056444;28;20029;-45
2021/07/01 03:11:30;;;;;;;13.23;9.70;;;22.60;90.30;;;;;;5056411;28;20037;-46
2021/07/01 03:13:55;;;;;;;11.35;10.07;;;22.60;90.40;;;;;;5055970;28;20037;-45
2021/07/01 03:16:21;;;;;;;14.50;10.68;;;22.70;90.40;;;;;;5056539;28;20119;-45
2021/07/01 03:18:48;;;;;;;13.35;10.10;;;22.70;90.50;;;;;;5055788;28;20409;-45
2021/07/01 03:21:15;;;;;;;13.00;9.32;;;22.70;90.40;;;;;;5056392;28;20039;-47
2021/07/01 03:23:41;;;;;;;9.48;8.27;;;22.80;90.30;;;;;;5055564;28;20279;-46
2021/07/01 03:26:07;;;;;;;10.90;8.50;;;22.80;90.10;;;;;;5056588;28;20032;-45
2021/07/01 03:28:32;;;;;;;8.95;8.02;;;22.80;90.00;;;;;;5055792;28;20256;-48
2021/07/01 03:30:58;;;;;;;10.95;8.73;;;22.90;90.00;;;;;;5056674;28;20032;-45
2021/07/01 03:33:24;;;;;;;12.10;8.85;;;22.90;89.80;;;;;;5056116;28;20352;-46
2021/07/01 03:35:49;;;;;;;11.93;8.18;;;22.90;89.60;;;;;;5056489;28;20037;-46
2021/07/01 03:38:15;;;;;;;11.40;8.32;;;22.90;89.60;;;;;;5055719;28;20033;-46
2021/07/01 03:40:41;;;;;;;11.98;8.80;;;22.90;89.60;;;;;;5056094;28;20057;-45
2021/07/01 03:43:06;;;;;;;10.63;9.00;;;23.00;89.90;;;;;;5055594;28;20033;-43
2021/07/01 03:45:32;;;;;;;12.75;9.60;;;23.00;90.00;;;;;;5055320;28;20108;-46
2021/07/01 03:47:58;;;;;;;16.02;11.65;;;23.10;90.00;;;;;;5055139;28;20375;-45
2021/07/01 03:50:24;;;;;;;14.65;10.10;;;23.10;90.10;;;;;;5056452;28;20037;-44
2021/07/01 03:52:50;;;;;;;14.13;10.02;;;23.20;90.20;;;;;;5055941;28;20036;-45
2021/07/01 03:55:18;;;;;;;13.10;10.32;;;23.20;90.10;;;;;;5056511;28;20105;-45
2021/07/01 03:57:45;;;;;;;14.20;10.50;;;23.20;90.00;;;;;;5055427;28;20078;-45
2021/07/01 04:00:11;;;;;;;12.40;9.30;;;23.30;89.70;;;;;;5056217;28;20040;-46
2021/07/01 04:02:37;;;;;;;14.57;10.80;;;23.30;89.00;;;;;;5055513;28;20390;-46
2021/07/01 04:05:04;;;;;;;14.13;11.60;;;23.30;88.40;;;;;;5056000;28;20417;-47
2021/07/01 04:07:30;;;;;;;13.65;10.80;;;23.30;88.40;;;;;;5055336;28;20025;-45
2021/07/01 04:09:55;;;;;;;13.93;12.43;;;23.30;88.40;;;;;;5055198;28;20033;-46
2021/07/01 04:12:21;;;;;;;13.38;11.55;;;23.40;88.10;;;;;;5055521;28;20082;-46
2021/07/01 04:14:47;;;;;;;15.82;11.35;;;23.40;88.00;;;;;;5055833;28;20033;-44
2021/07/01 04:17:12;;;;;;;13.27;11.40;;;23.40;88.20;;;;;;5055145;28;20465;-45
2021/07/01 04:19:38;;;;;;;12.77;11.05;;;23.40;87.70;;;;;;5055762;28;20040;-47
2021/07/01 04:22:04;;;;;;;14.98;12.65;;;23.30;87.30;;;;;;5054981;28;20021;-46
2021/07/01 04:24:29;;;;;;;19.23;15.40;;;23.30;87.70;;;;;;5055560;28;20075;-45
2021/07/01 04:26:55;;;;;;;18.80;14.75;;;23.30;88.20;;;;;;5055096;28;20147;-45
2021/07/01 04:29:21;;;;;;;18.73;16.55;;;23.30;88.50;;;;;;5055242;28;20033;-44
2021/07/01 04:31:47;;;;;;;23.38;18.48;;;23.30;88.90;;;;;;5055016;28;20025;-44
2021/07/01 04:34:13;;;;;;;23.80;18.70;;;23.30;89.50;;;;;;5054961;28;20048;-44
2021/07/01 04:36:39;;;;;;;20.92;16.80;;;23.30;89.90;;;;;;5054974;28;20029;-45
2021/07/01 04:39:06;;;;;;;18.90;16.60;;;23.40;90.00;;;;;;5054469;28;20068;-44
2021/07/01 04:41:32;;;;;;;23.25;18.38;;;23.40;90.10;;;;;;5055008;28;20120;-43
2021/07/01 04:43:57;;;;;;;22.25;19.13;;;23.50;90.10;;;;;;5055119;28;20112;-44
2021/07/01 04:46:23;;;;;;;20.02;16.80;;;23.50;90.10;;;;;;5055628;28;20021;-45
2021/07/01 04:48:51;;;;;;;22.92;18.02;;;23.50;90.10;;;;;;5054958;28;20108;-45
2021/07/01 04:51:17;;;;;;;18.10;16.05;;;23.60;90.10;;;;;;5055170;28;20045;-45
2021/07/01 04:53:42;;;;;;;16.92;14.43;;;23.60;90.10;;;;;;5054570;28;20049;-45
2021/07/01 04:56:08;;;;;;;21.63;15.18;;;23.70;90.10;;;;;;5055090;28;20045;-44
2021/07/01 04:58:34;;;;;;;24.65;18.00;;;23.70;89.80;;;;;;5056464;28;20021;-47
2021/07/01 05:01:01;;;;;;;22.30;16.67;;;23.80;89.80;;;;;;5059306;28;20059;-49
2021/07/01 05:03:26;;;;;;;23.08;16.88;;;23.80;89.80;;;;;;5058328;28;20063;-48
2021/07/01 05:05:53;;;;;;;19.52;15.07;;;23.80;89.50;;;;;;5059169;28;20029;-46
2021/07/01 05:08:19;;;;;;;16.85;14.88;;;23.90;89.40;;;;;;5058816;28;20059;-45
2021/07/01 05:10:45;;;;;;;18.05;14.63;;;23.90;88.90;;;;;;5058894;28;20435;-46
2021/07/01 05:13:10;;;;;;;19.27;15.65;;;23.90;88.70;;;;;;5058484;28;20032;-43
2021/07/01 05:15:36;;;;;;;16.15;13.63;;;23.90;88.50;;;;;;5076424;28;20134;-44
2021/07/01 05:18:02;;;;;;;24.88;16.25;;;23.90;88.10;;;;;;5078008;28;20032;-44
2021/07/01 05:20:28;;;;;;;19.83;15.13;;;23.90;88.60;;;;;;5078962;28;20060;-44
2021/07/01 05:22:54;;;;;;;20.00;15.52;;;23.90;88.10;;;;;;5078248;28;20071;-44
2021/07/01 05:25:19;;;;;;;17.73;14.10;;;23.90;88.30;;;;;;5078717;28;20032;-44
2021/07/01 05:27:45;;;;;;;22.67;14.38;;;24.00;88.00;;;;;;5078268;28;20029;-44
2021/07/01 05:30:12;;;;;;;19.23;13.10;;;24.00;88.00;;;;;;5078686;28;20035;-43
2021/07/01 05:32:37;;;;;;;19.15;15.13;;;24.10;87.40;;;;;;5078277;28;20025;-44
2021/07/01 05:35:04;;;;;;;21.27;15.70;;;24.10;88.00;;;;;;5078663;28;20040;-44
2021/07/01 05:37:30;;;;;;;17.00;14.05;;;24.10;87.60;;;;;;5077911;28;20025;-44
2021/07/01 05:39:55;;;;;;;18.92;16.25;;;24.10;87.10;;;;;;5078242;28;20082;-44
2021/07/01 05:42:21;;;;;;;19.48;16.27;;;24.20;87.20;;;;;;5078104;28;20082;-44
2021/07/01 05:44:46;;;;;;;17.40;14.45;;;24.30;87.10;;;;;;5078264;28;20115;-45
2021/07/01 05:47:12;;;;;;;18.17;15.65;;;24.30;86.60;;;;;;5077721;28;20448;-45
2021/07/01 05:49:39;;;;;;;17.30;15.50;;;24.30;86.90;;;;;;5078094;28;20417;-44
2021/07/01 05:52:06;;;;;;;18.88;14.95;;;24.40;87.10;;;;;;5077714;28;20484;-47
2021/07/01 05:54:35;;;;;;;19.05;16.83;;;24.50;86.20;;;;;;5078526;28;20085;-45
2021/07/01 05:57:01;;;;;;;19.15;16.75;;;24.50;86.60;;;;;;5077529;28;20421;-45
2021/07/01 05:59:27;;;;;;;20.98;17.58;;;24.60;86.30;;;;;;5076673;28;20081;-45
2021/07/01 06:01:52;;;;;;;23.75;19.20;;;24.70;86.10;;;;;;5077588;28;20028;-44
2021/07/01 06:04:18;;;;;;;22.27;17.58;;;24.70;85.40;;;;;;5077709;28;20028;-47
2021/07/01 06:06:52;;;;;;;23.80;17.90;;;24.80;85.40;;;;;;5077514;28;20021;-44
2021/07/01 06:09:24;;;;;;;23.40;17.13;;;24.80;85.60;;;;;;5077610;28;20029;-44
2021/07/01 06:11:55;;;;;;;24.50;17.90;;;24.80;85.10;;;;;;5077556;28;20029;-45
2021/07/01 06:14:22;;;;;;;22.95;16.38;;;24.80;84.20;;;;;;5077284;28;20064;-45
2021/07/01 06:16:49;;;;;;;22.10;17.55;;;24.80;83.90;;;;;;5077274;28;20540;-44
2021/07/01 06:19:16;;;;;;;21.73;18.42;;;24.80;83.60;;;;;;5077544;28;20036;-44
2021/07/01 06:21:42;;;;;;;23.83;17.23;;;24.80;83.90;;;;;;5077049;28;20048;-45
2021/07/01 06:24:09;;;;;;;22.05;18.00;;;24.80;83.80;;;;;;5077160;28;20032;-44
2021/07/01 06:26:36;;;;;;;20.50;18.02;;;24.80;83.60;;;;;;5076934;28;20021;-44
2021/07/01 06:29:03;;;;;;;22.20;17.92;;;24.80;83.40;;;;;;5076740;28;20048;-47
2021/07/01 06:31:29;;;;;;;19.17;16.42;;;24.80;84.30;;;;;;5077126;28;20035;-45
2021/07/01 06:33:55;;;;;;;17.58;15.57;;;24.80;83.50;;;;;;5077049;28;20037;-44
2021/07/01 06:36:26;;;;;;;18.20;16.20;;;24.90;83.60;;;;;;5077165;28;20360;-44
2021/07/01 06:38:58;;;;;;;19.00;16.40;;;24.90;83.90;;;;;;5076335;28;20143;-44
2021/07/01 06:41:27;;;;;;;21.88;18.55;;;25.00;84.10;;;;;;5076990;28;20142;-45
2021/07/01 06:43:54;;;;;;;32.28;21.02;;;25.00;84.30;;;;;;5074899;28;20082;-45
2021/07/01 06:46:20;;;;;;;28.35;18.85;;;25.00;83.70;;;;;;5076915;28;20025;-45
2021/07/01 06:48:47;;;;;;;24.50;17.60;;;25.00;84.10;;;;;;5075977;28;20020;-49
2021/07/01 06:51:14;;;;;;;20.70;17.05;;;25.10;83.10;;;;;;5072371;28;20035;-47
2021/07/01 06:53:42;;;;;;;22.08;16.83;;;25.10;82.40;;;;;;5076332;28;20411;-45
2021/07/01 06:56:09;;;;;;;19.58;16.08;;;25.20;82.60;;;;;;5076499;28;20047;-45
2021/07/01 06:58:36;;;;;;;18.45;16.23;;;25.20;82.60;;;;;;5075705;28;20609;-45
2021/07/01 07:01:03;;;;;;;21.77;16.70;;;25.30;81.90;;;;;;5076544;28;20044;-44
2021/07/01 07:03:29;;;;;;;22.05;17.65;;;25.30;81.80;;;;;;5075981;28;20118;-44
2021/07/01 07:05:56;;;;;;;26.90;21.05;;;25.40;81.70;;;;;;5076504;28;20029;-45
2021/07/01 07:08:22;;;;;;;21.80;19.42;;;25.40;81.20;;;;;;5076252;28;20028;-44
2021/07/01 07:10:48;;;;;;;22.08;18.63;;;25.50;80.50;;;;;;5076178;28;20020;-48
2021/07/01 07:13:15;;;;;;;18.55;16.50;;;25.60;80.20;;;;;;5076324;28;20434;-46
2021/07/01 07:15:43;;;;;;;20.35;17.27;;;25.70;80.50;;;;;;5076258;28;20036;-44
2021/07/01 07:18:15;;;;;;;21.88;18.48;;;25.70;79.40;;;;;;5076192;28;20059;-44
2021/07/01 07:20:43;;;;;;;23.08;18.08;;;25.80;79.10;;;;;;5075681;28;20062;-43
2021/07/01 07:23:14;;;;;;;18.52;15.75;;;25.90;79.00;;;;;;5075858;28;20028;-43
2021/07/01 07:25:41;;;;;;;19.40;16.00;;;26.00;78.50;;;;;;5075790;28;20111;-43
2021/07/01 07:28:09;;;;;;;18.48;16.05;;;26.10;78.90;;;;;;5075783;28;20319;-44
2021/07/01 07:30:36;;;;;;;23.95;17.17;;;26.10;78.10;;;;;;5075837;28;20098;-43
2021/07/01 07:33:06;;;;;;;21.38;16.17;;;26.20;77.50;;;;;;5075489;28;20032;-46
2021/07/01 07:35:32;;;;;;;23.48;18.48;;;26.30;77.00;;;;;;5075873;28;20032;-45
2021/07/01 07:38:01;;;;;;;25.67;21.77;;;26.30;77.50;;;;;;5075605;28;20324;-43
2021/07/01 07:40:27;;;;;;;21.90;18.13;;;26.30;77.20;;;;;;5075531;28;20119;-44
2021/07/01 07:42:53;;;;;;;23.10;18.17;;;26.40;76.90;;;;;;5075728;28;20347;-43
2021/07/01 07:45:19;;;;;;;21.77;18.67;;;26.40;76.20;;;;;;5075607;28;20060;-44
2021/07/01 07:47:45;;;;;;;20.23;18.02;;;26.50;76.10;;;;;;5074082;28;20024;-43
2021/07/01 07:50:12;;;;;;;21.73;18.35;;;26.60;75.60;;;;;;5075639;28;20025;-44
2021/07/01 07:52:59;;;;;;;21.33;18.52;;;26.70;75.50;;;;;;5075189;28;20040;-43
2021/07/01 07:55:28;;;;;;;21.98;16.95;;;26.80;75.00;;;;;;5075537;28;20226;-44
2021/07/01 07:57:59;;;;;;;16.65;14.82;;;26.90;75.20;;;;;;5075392;28;20134;-43
2021/07/01 08:00:26;;;;;;;19.83;16.45;;;27.00;75.40;;;;;;5075677;28;20388;-43
2021/07/01 08:02:54;;;;;;;19.35;16.02;;;27.00;74.70;;;;;;5075088;28;20025;-44
2021/07/01 08:05:30;;;;;;;20.55;17.17;;;27.10;75.00;;;;;;5075154;28;20033;-43
2021/07/01 08:07:56;;;;;;;18.80;16.80;;;27.20;74.40;;;;;;5074921;28;20029;-44
2021/07/01 08:10:30;;;;;;;20.67;16.83;;;27.30;74.40;;;;;;5075090;28;20103;-42
2021/07/01 08:13:03;;;;;;;21.80;15.65;;;27.40;74.00;;;;;;5075344;28;20158;-43
2021/07/01 08:15:30;;;;;;;19.38;14.93;;;27.50;73.50;;;;;;5074763;28;20040;-45
2021/07/01 08:17:57;;;;;;;23.55;16.13;;;27.50;73.00;;;;;;5074900;28;20404;-45
2021/07/01 08:20:24;;;;;;;20.27;15.35;;;27.50;72.50;;;;;;5075220;28;20329;-44
2021/07/01 08:22:52;;;;;;;18.77;15.10;;;27.60;72.20;;;;;;5075097;28;20025;-45
2021/07/01 08:25:19;;;;;;;27.05;17.05;;;27.60;72.00;;;;;;5075051;28;20035;-42
2021/07/01 08:27:47;;;;;;;19.63;16.50;;;27.60;71.80;;;;;;5074531;28;20082;-43
2021/07/01 08:30:15;;;;;;;17.13;15.30;;;27.60;71.60;;;;;;5074932;28;20405;-43
2021/07/01 08:32:42;;;;;;;19.48;15.32;;;27.50;71.60;;;;;;5074965;28;20398;-44
2021/07/01 08:35:12;;;;;;;21.20;15.85;;;27.60;71.60;;;;;;5079498;28;20093;-43
2021/07/01 08:37:43;;;;;;;18.70;16.10;;;27.60;71.40;;;;;;5078968;28;20320;-44
2021/07/01 08:40:10;;;;;;;19.02;15.25;;;27.60;71.40;;;;;;5079093;28;20057;-42
2021/07/01 08:42:37;;;;;;;19.15;16.38;;;27.70;71.50;;;;;;5078653;28;20036;-46
2021/07/01 08:45:12;;;;;;;18.67;16.73;;;27.70;71.50;;;;;;5079112;28;20104;-45
2021/07/01 08:47:43;;;;;;;20.67;16.30;;;27.80;71.80;;;;;;5078255;28;20029;-44
2021/07/01 08:50:16;;;;;;;21.15;16.88;;;27.90;71.70;;;;;;5077099;28;20036;-44
2021/07/01 08:53:15;;;;;;;18.55;13.95;;;28.00;71.50;;;;;;5078624;28;20032;-45
2021/07/01 08:55:41;;;;;;;18.00;15.90;;;28.10;70.70;;;;;;5079012;28;20492;-42
2021/07/01 08:58:09;;;;;;;21.48;17.35;;;28.10;70.40;;;;;;5078825;28;20032;-43
2021/07/01 09:00:42;;;;;;;23.15;17.80;;;28.20;70.70;;;;;;5078986;28;20036;-43
2021/07/01 09:03:09;;;;;;;21.25;17.70;;;28.20;70.80;;;;;;5078441;28;20056;-42
2021/07/01 09:05:39;;;;;;;22.73;17.05;;;28.30;70.60;;;;;;5078197;28;20404;-46
2021/07/01 09:08:10;;;;;;;15.00;11.05;;;28.30;69.60;;;;;;5078372;28;20028;-44
2021/07/01 09:10:37;;;;;;;18.63;14.52;;;28.40;69.70;;;;;;5077232;28;20025;-43
2021/07/01 09:13:08;;;;;;;15.65;14.05;;;28.50;69.30;;;;;;5078343;28;20320;-44
2021/07/01 09:15:36;;;;;;;16.73;14.98;;;28.50;69.10;;;;;;5078177;28;20040;-43
2021/07/01 09:18:03;;;;;;;21.10;15.85;;;28.50;68.70;;;;;;5077815;28;20327;-43
2021/07/01 09:20:35;;;;;;;18.60;15.75;;;28.60;69.00;;;;;;5078295;28;20362;-41
2021/07/01 09:23:02;;;;;;;21.17;15.57;;;28.60;68.20;;;;;;5077972;28;20174;-42
2021/07/01 09:25:28;;;;;;;18.05;16.15;;;28.60;68.50;;;;;;5077794;28;20028;-44
2021/07/01 09:27:55;;;;;;;19.30;15.98;;;28.70;68.70;;;;;;5077932;28;20044;-43
2021/07/01 09:30:25;;;;;;;22.65;17.98;;;28.70;68.50;;;;;;5078630;28;20029;-42
2021/07/01 09:32:57;;;;;;;24.15;18.60;;;28.70;68.60;;;;;;5078234;28;20032;-44
2021/07/01 09:35:25;;;;;;;20.77;17.08;;;28.80;68.60;;;;;;5078501;28;20428;-43
2021/07/01 09:37:52;;;;;;;28.50;18.83;;;28.90;68.80;;;;;;5077654;28;20044;-43
2021/07/01 09:40:21;;;;;;;19.58;17.02;;;28.90;68.40;;;;;;5078091;28;20344;-46
2021/07/01 09:42:55;;;;;;;22.00;17.70;;;29.00;67.50;;;;;;5077695;28;20039;-43
2021/07/01 09:45:23;;;;;;;26.73;20.95;;;29.00;67.30;;;;;;5076919;28;20035;-45
2021/07/01 09:48:13;;;;;;;25.70;20.30;;;29.00;67.30;;;;;;5077033;28;20044;-44
2021/07/01 09:50:47;;;;;;;21.58;18.05;;;29.00;67.50;;;;;;5077225;28;20036;-45
2021/07/01 09:53:22;;;;;;;25.88;20.20;;;29.00;67.30;;;;;;5077557;28;20297;-45
2021/07/01 09:55:52;;;;;;;27.15;18.58;;;29.00;67.10;;;;;;5077987;28;20024;-47
2021/07/01 09:58:20;;;;;;;23.77;18.05;;;29.00;67.30;;;;;;5077855;28;20024;-43
2021/07/01 10:00:52;;;;;;;25.63;18.30;;;29.00;66.40;;;;;;5078179;28;20091;-43
2021/07/01 10:03:18;;;;;;;23.63;20.60;;;29.00;66.90;;;;;;5077246;28;20116;-44
2021/07/01 10:05:43;;;;;;;24.50;19.77;;;29.00;67.30;;;;;;5073340;28;20131;-43
2021/07/01 10:08:09;;;;;;;24.83;17.25;;;29.00;67.50;;;;;;5076543;28;20044;-43
2021/07/01 10:10:47;;;;;;;22.75;18.23;;;29.00;67.50;;;;;;5077443;28;20329;-43
2021/07/01 10:13:13;;;;;;;25.35;17.92;;;29.00;68.00;;;;;;5076946;28;20033;-43
2021/07/01 10:15:40;;;;;;;23.65;18.52;;;29.00;68.00;;;;;;5077487;28;20043;-43
2021/07/01 10:18:17;;;;;;;28.13;19.65;;;29.00;67.50;;;;;;5077110;28;20035;-43
2021/07/01 10:20:50;;;;;;;22.90;18.73;;;29.10;67.20;;;;;;5077466;28;20068;-44
2021/07/01 10:23:26;;;;;;;22.08;16.85;;;29.00;67.20;;;;;;5076897;28;20021;-44
2021/07/01 10:25:59;;;;;;;19.70;16.00;;;29.00;67.00;;;;;;5077301;28;20029;-44
2021/07/01 10:28:26;;;;;;;23.23;17.98;;;29.00;67.00;;;;;;5076666;28;20024;-44
2021/07/01 10:30:56;;;;;;;18.67;15.60;;;29.10;67.50;;;;;;5077346;28;20032;-43
2021/07/01 10:33:23;;;;;;;24.20;16.88;;;29.10;67.70;;;;;;5076587;28;20492;-43
2021/07/01 10:35:49;;;;;;;20.63;16.23;;;29.20;67.70;;;;;;5077163;28;20363;-46
2021/07/01 10:38:15;;;;;;;22.13;16.98;;;29.30;67.10;;;;;;5076502;28;20028;-43
2021/07/01 10:40:46;;;;;;;20.60;15.52;;;29.30;67.20;;;;;;5076344;28;20098;-44
2021/07/01 10:43:15;;;;;;;23.33;17.02;;;29.40;66.40;;;;;;5076814;28;20024;-43
2021/07/01 10:45:56;;;;;;;17.85;14.70;;;29.50;66.70;;;;;;5076885;28;20420;-46
2021/07/01 10:48:22;;;;;;;19.83;14.73;;;29.50;65.90;;;;;;5076522;28;20058;-43
2021/07/01 10:50:51;;;;;;;18.63;15.23;;;29.60;66.40;;;;;;5076868;28;20073;-46
2021/07/01 10:53:27;;;;;;;19.17;15.60;;;29.60;66.80;;;;;;5076313;28;20479;-45
2021/07/01 10:55:54;;;;;;;16.58;14.43;;;29.70;66.20;;;;;;5075930;28;20044;-44
2021/07/01 10:58:21;;;;;;;17.67;14.60;;;29.80;65.30;;;;;;5076369;28;20088;-47
2021/07/01 11:00:46;;;;;;;18.38;16.00;;;29.90;65.60;;;;;;5076771;28;20350;-44
2021/07/01 11:03:25;;;;;;;19.35;16.67;;;30.00;65.50;;;;;;5076198;28;20158;-45
2021/07/01 11:05:51;;;;;;;19.65;15.43;;;30.00;65.00;;;;;;5076495;28;20033;-44
2021/07/01 11:08:24;;;;;;;25.38;15.38;;;30.00;65.60;;;;;;5076361;28;20043;-45
2021/07/01 11:10:51;;;;;;;18.67;13.38;;;30.10;64.90;;;;;;5076711;28;20086;-44
2021/07/01 11:13:18;;;;;;;22.17;13.80;;;30.20;64.70;;;;;;5076201;28;20079;-43
2021/07/01 11:16:10;;;;;;;16.65;14.02;;;30.30;64.20;;;;;;5076239;28;20062;-44
2021/07/01 11:18:44;;;;;;;14.25;12.75;;;30.40;64.10;;;;;;5075946;28;20043;-44
2021/07/01 11:21:10;;;;;;;14.38;12.68;;;30.40;63.30;;;;;;5075978;28;20429;-43
2021/07/01 11:23:36;;;;;;;17.42;14.50;;;30.50;63.70;;;;;;5075214;28;20111;-47
2021/07/01 11:26:03;;;;;;;15.48;12.90;;;30.50;63.50;;;;;;5075647;28;20114;-44
2021/07/01 11:28:29;;;;;;;19.23;13.02;;;30.60;63.30;;;;;;5075649;28;20054;-43
2021/07/01 11:31:04;;;;;;;17.88;13.23;;;30.70;63.50;;;;;;5075092;28;20100;-44
2021/07/01 11:33:31;;;;;;;17.05;13.98;;;30.70;63.30;;;;;;5075648;28;20088;-43
2021/07/01 11:36:09;;;;;;;14.43;12.60;;;30.80;63.10;;;;;;5076171;28;20074;-43
2021/07/01 11:38:35;;;;;;;20.23;13.45;;;30.90;63.10;;;;;;5075553;28;20086;-44
2021/07/01 11:41:04;;;;;;;17.10;12.25;;;31.00;62.90;;;;;;5075920;28;20063;-46
2021/07/01 11:43:32;;;;;;;18.88;12.52;;;31.10;62.40;;;;;;5075261;28;20429;-45
2021/07/01 11:45:58;;;;;;;20.25;12.55;;;31.10;62.90;;;;;;5075907;28;20357;-43
2021/07/01 11:48:26;;;;;;;18.38;11.32;;;31.20;62.30;;;;;;5075395;28;20020;-44
2021/07/01 11:50:53;;;;;;;16.98;12.15;;;31.30;61.40;;;;;;5075758;28;20029;-44
2021/07/01 11:53:21;;;;;;;16.48;11.82;;;31.40;62.00;;;;;;5075488;28;20317;-46
2021/07/01 11:55:48;;;;;;;13.75;12.15;;;31.60;61.60;;;;;;5075737;28;20119;-45
2021/07/01 11:58:15;;;;;;;13.43;11.98;;;31.60;61.00;;;;;;5075592;28;20036;-45
2021/07/01 12:00:41;;;;;;;16.20;11.35;;;31.70;61.20;;;;;;5075380;28;20028;-44
2021/07/01 12:03:08;;;;;;;13.77;11.70;;;31.80;61.90;;;;;;5075048;28;20043;-44
2021/07/01 12:05:34;;;;;;;21.85;12.57;;;31.90;61.60;;;;;;5075202;28;20367;-45
2021/07/01 12:08:03;;;;;;;14.63;11.23;;;32.10;61.90;;;;;;5074862;28;20039;-43
2021/07/01 12:10:29;;;;;;;16.88;11.75;;;32.20;59.50;;;;;;5075178;28;20032;-44
2021/07/01 12:12:55;;;;;;;14.65;11.82;;;32.30;59.90;;;;;;5075427;28;20059;-44
2021/07/01 12:15:21;;;;;;;13.23;11.20;;;32.50;60.20;;;;;;5075509;28;20024;-44
2021/07/01 12:18:05;;;;;;;14.23;11.73;;;32.60;59.80;;;;;;5074873;28;20044;-44
2021/07/01 12:20:36;;;;;;;16.25;11.40;;;32.70;59.40;;;;;;5075386;28;20032;-44
2021/07/01 12:23:17;;;;;;;18.35;11.82;;;32.80;58.20;;;;;;5074872;28;20032;-45
2021/07/01 12:25:49;;;;;;;15.48;12.15;;;32.80;58.30;;;;;;5075006;28;20041;-45
2021/07/01 12:28:27;;;;;;;14.40;11.85;;;33.00;58.10;;;;;;5074873;28;20048;-44
2021/07/01 12:31:02;;;;;;;16.67;11.57;;;33.10;58.30;;;;;;5075297;28;20043;-44